Accueil
METAR-TAF:

METAR-TAF

Aéroports :

Aéroport de Suva-Nausori

Suva, Fidji

latitude: 18-03S, longitude: 178-34E, altitude: 5 m

Observation

Le bulletin a été fait il y a 1 heure et 12 minutes, à 23:00 UTC
Vent 4 kt de nord-est
Température 29°C
Humidité 84%
Pression 1014 hPa
Visibilité 10 km ou plus
Nuages fragmentés à une hauteur de 2200 ft

METAR: NFNA 172300Z 05004KT 9999 BKN022 29/26 Q1014

Heure: 12:12 (00:12 UTC)

Prévision

Le bulletin a été fait il y a 1 heure et 0 minutes, à 23:12 UTC
Prévision valable du 18 à 00 UTC au 18 à 24 UTC
Vent 8 kt de nord-est
Visibilité 10 km ou plus
Nuages fragmentés à une hauteur de 2000 ft

TAF: NFNA 172312Z 1800/1824 05008KT 9999 BKN020

Observations et prévisions météorologiques de plus de 4000 aéroports (messages METAR et TAF).

Les stations disponibles sont représentées par des disques jaunes et rouges sur la carte.

Passer la souris dessus pour voir le nom de la station.

Cliquer dessus pour voir les observations et prévisions météorologiques.

Pour changer de carte: cliquez sur les boutons verts avec une croix noire pour zoomer, sur le bouton vert avec un tiret pour effectuer un zoom arrière, ou sur les flèches vertes pour les cartes adjacentes.


METAR-TAF: